Terminal Aerodrome Forecast
Issued by NWS

Home | Current Version | Previous Version | Text Only | Print | Product List | Glossary Off
Versions: 1 2 3 4 5 6 7 8 9 10 11 12 13

720
FTUS43 KGRB 111120
TAFMTW
TAF
KMTW 111120Z 1112/1212 28008KT P6SM SKC
     FM120000 25008KT P6SM BKN080
     FM121000 28011G17KT P6SM BKN035=

USA.gov is the U.S. government's official web portal to all federal, state and local government web resources and services.